LIED/DCI METAR and TAF weather

Enter ICAO airport designator
Station Type Date Time Source
LIED METAR 2021/07/29 02:55 UTC NOAA

LIED 290255Z 33003KT CAVOK 22/21 Q1011 RMK SKC VIS MIN 9999 WIND THR35 31005KT WIND THR17 35003KT BLU


Station Type Date Time Source
LIED Decoded METAR 2021/07/29 02:55 UTC NOAA

Decimomannu, Italy (LIED) 39-21N 008-58E 28M
Jul 28, 2021 - 10:55 PM EDT / 2021.07.29 0255 UTC
Wind: from the NNW (330 degrees) at 3 MPH (3 KT):0
Visibility: greater than 7 mile(s):0
Temperature: 71 F (22 C)
Dew Point: 69 F (21 C)
Relative Humidity: 94%
Pressure (altimeter): 29.85 in. Hg (1011 hPa)
ob: LIED 290255Z 33003KT CAVOK 22/21 Q1011 RMK SKC VIS MIN 9999 WIND THR35 31005KT WIND THR17 35003KT BLU
cycle: 3

Station Type Date Time Source
LIED TAF 2021/01/17 03:30 UTC NOAA

TAF TAF LIED 170500Z 1703/1715 03003KT 9999 FEW020 SCT040
TEMPO 1706/1710 RA SCT020 BKN060
BECMG 1708/1710 33018KT
TEMPO 1710/1715 33025G35KT
TEMPO 1713/1715 RA

Example: see airport list